Blades, Delaware
Current Conditions -  °F | °C
As of 9:13 PM on Wednesday 22 Oct 2014 (Local Time) from KGED Reporting Station
Light Rain Light Rain  
Wind Chill: 53°   Ceiling: 1300
Heat Index: 53°   Visibility: 10mi
Dew Point: 50°   Wind: 9mph
Humidity: 89%   Direction: 340°NNW
Pressure: 29.83"   Gusts: NA
Location:  38.6412°N, 75.6063°W
Report Text: KGED 230113Z AUTO 34008KT 10SM -RA BKN013 BKN019 OVC027 12/10 A2983 RMK AO2 P0000 T01170100
Loading
Personal Weather Stations






























Interactive Weather Map
Tropical Storm Tracking
New forecast layout! Learn more

10-Day Weather Forecast

Advertisements
Track Severe Weather on mobile